Time;durP1;ratioP1;P1;durP2;ratioP2;P2;SDS_P1;SDS_P2;PMS_P1;PMS_P2;Temp;Humidity;BMP_temperature;BMP_pressure;BME280_temperature;BME280_humidity;BME280_pressure;Samples;Min_cycle;Max_cycle;Signal;HPM_P1;HPM_P2
2023/06/19 00:01:56;;;;;;;8.93;7.53;;;21.70;99.90;;;;;;5096359;28;20055;-71
2023/06/19 00:04:22;;;;;;;8.53;7.37;;;21.70;99.90;;;;;;5096214;28;20036;-72
2023/06/19 00:06:48;;;;;;;8.77;7.73;;;21.70;99.90;;;;;;5114726;28;20097;-71
2023/06/19 00:09:14;;;;;;;8.90;7.87;;;21.70;99.90;;;;;;5096484;28;20075;-71
2023/06/19 00:11:40;;;;;;;9.57;7.23;;;21.70;99.90;;;;;;5095879;28;20047;-72
2023/06/19 00:14:06;;;;;;;10.43;7.93;;;21.70;99.90;;;;;;5095826;28;20515;-72
2023/06/19 00:16:32;;;;;;;9.70;7.63;;;21.70;99.90;;;;;;5113448;28;20059;-72
2023/06/19 00:18:58;;;;;;;14.67;8.07;;;21.70;99.90;;;;;;5096139;28;20047;-72
2023/06/19 00:21:25;;;;;;;8.03;6.50;;;21.70;99.90;;;;;;5113931;28;20139;-72
2023/06/19 00:23:52;;;;;;;9.13;7.20;;;21.70;99.90;;;;;;5096014;28;20047;-72
2023/06/19 00:26:22;;;;;;;9.90;7.40;;;21.70;99.90;;;;;;5113928;28;20047;-71
2023/06/19 00:28:51;;;;;;;10.37;6.63;;;21.60;99.90;;;;;;5113888;28;20046;-71
2023/06/19 00:31:18;;;;;;;10.67;7.73;;;21.70;99.90;;;;;;5095869;28;20469;-71
2023/06/19 00:33:47;;;;;;;9.43;6.67;;;21.70;99.90;;;;;;5113431;28;20052;-71
2023/06/19 00:36:14;;;;;;;9.17;7.50;;;21.60;99.90;;;;;;5113077;28;20039;-71
2023/06/19 00:38:40;;;;;;;13.83;7.27;;;21.60;99.90;;;;;;5113453;28;20666;-71
2023/06/19 00:41:06;;;;;;;9.70;7.73;;;21.60;99.90;;;;;;5095492;28;20131;-71
2023/06/19 00:43:33;;;;;;;8.43;7.20;;;21.60;99.90;;;;;;5113392;28;20063;-71
2023/06/19 00:45:59;;;;;;;8.53;7.30;;;21.60;99.90;;;;;;5113591;28;20047;-71
2023/06/19 00:48:27;;;;;;;9.03;7.10;;;21.60;99.90;;;;;;5113240;28;20127;-71
2023/06/19 00:50:53;;;;;;;10.27;7.20;;;21.60;99.90;;;;;;5113475;28;20039;-71
2023/06/19 00:53:20;;;;;;;8.43;6.97;;;21.60;99.90;;;;;;5095046;28;20052;-71
2023/06/19 00:55:48;;;;;;;8.47;7.10;;;21.60;99.90;;;;;;5113061;28;20054;-71
2023/06/19 00:58:14;;;;;;;8.90;7.27;;;21.50;99.90;;;;;;5113426;28;20127;-71
2023/06/19 01:00:40;;;;;;;9.53;6.77;;;21.60;99.90;;;;;;5113358;28;20055;-71
2023/06/19 01:03:06;;;;;;;7.93;7.00;;;21.60;99.90;;;;;;5113247;28;20047;-71
2023/06/19 01:05:33;;;;;;;8.90;6.67;;;21.50;99.90;;;;;;5113006;28;20040;-71
2023/06/19 01:08:35;;;;;;;7.67;6.60;;;21.50;99.90;;;;;;5113218;28;20051;-71
2023/06/19 01:11:01;;;;;;;10.50;7.07;;;21.50;99.90;;;;;;5095004;28;20052;-71
2023/06/19 01:13:54;;;;;;;9.83;6.93;;;21.50;99.90;;;;;;5112600;28;20452;-71
2023/06/19 01:16:21;;;;;;;8.70;6.53;;;21.50;99.90;;;;;;5113298;28;20109;-71
2023/06/19 01:18:48;;;;;;;11.43;7.17;;;21.60;99.90;;;;;;5112801;28;20126;-71
2023/06/19 01:21:16;;;;;;;10.80;7.10;;;21.60;99.90;;;;;;5112800;28;20411;-71
2023/06/19 01:23:43;;;;;;;8.67;7.03;;;21.60;99.90;;;;;;5112862;28;20063;-71
2023/06/19 01:26:09;;;;;;;8.00;7.07;;;21.60;99.90;;;;;;5113058;28;20048;-71
2023/06/19 01:28:37;;;;;;;8.20;6.97;;;21.60;99.90;;;;;;5112718;28;20051;-71
2023/06/19 01:31:08;;;;;;;8.40;6.77;;;21.60;99.90;;;;;;5113036;28;20131;-71
2023/06/19 01:33:37;;;;;;;8.80;6.57;;;21.50;99.90;;;;;;5112770;28;20049;-71
2023/06/19 01:36:04;;;;;;;9.17;7.10;;;21.60;99.90;;;;;;5112922;28;20071;-71
2023/06/19 01:38:31;;;;;;;7.43;6.63;;;21.50;99.90;;;;;;5112812;28;20057;-71
2023/06/19 01:40:59;;;;;;;9.57;6.70;;;21.50;99.90;;;;;;5112868;28;20051;-71
2023/06/19 01:43:27;;;;;;;9.03;6.80;;;21.60;99.90;;;;;;5112609;28;20514;-71
2023/06/19 01:45:52;;;;;;;8.47;6.80;;;21.60;99.90;;;;;;5112836;28;20466;-71
2023/06/19 01:48:18;;;;;;;8.47;6.53;;;21.50;99.90;;;;;;5117156;28;20043;-71
2023/06/19 01:50:48;;;;;;;8.97;6.77;;;21.50;99.90;;;;;;5098684;28;20069;-71
2023/06/19 01:53:14;;;;;;;9.10;6.50;;;21.50;99.90;;;;;;5117152;28;20047;-71
2023/06/19 01:55:40;;;;;;;8.60;6.83;;;21.50;99.90;;;;;;5116592;28;20043;-71
2023/06/19 01:58:06;;;;;;;9.33;7.27;;;21.50;99.90;;;;;;5081948;28;20083;-71
2023/06/19 02:00:35;;;;;;;9.13;6.70;;;21.40;99.90;;;;;;5116524;28;20090;-71
2023/06/19 02:03:04;;;;;;;10.73;7.53;;;21.40;99.90;;;;;;5116768;28;20048;-71
2023/06/19 02:05:34;;;;;;;9.93;6.30;;;21.50;99.90;;;;;;5116097;28;20047;-77
2023/06/19 02:07:59;;;;;;;8.27;6.47;;;21.50;99.90;;;;;;5116614;28;20414;-71
2023/06/19 02:10:25;;;;;;;9.30;6.93;;;21.40;99.90;;;;;;5098533;28;20043;-71
2023/06/19 02:12:51;;;;;;;8.40;6.60;;;21.40;99.90;;;;;;5081436;28;20055;-71
2023/06/19 02:15:16;;;;;;;9.57;7.43;;;21.40;99.90;;;;;;5116115;28;20062;-71
2023/06/19 02:17:42;;;;;;;8.10;7.10;;;21.40;99.90;;;;;;5116280;28;20044;-71
2023/06/19 02:20:11;;;;;;;9.27;7.47;;;21.40;99.90;;;;;;5116397;28;20079;-71
2023/06/19 02:22:40;;;;;;;9.40;7.07;;;21.40;99.90;;;;;;5116100;28;20446;-71
2023/06/19 02:25:06;;;;;;;8.10;7.07;;;21.40;99.90;;;;;;5116511;28;20082;-71
2023/06/19 02:27:32;;;;;;;8.83;7.53;;;21.40;99.90;;;;;;5097839;28;20072;-78
2023/06/19 02:29:58;;;;;;;7.90;7.10;;;21.40;99.90;;;;;;5116227;28;20039;-71
2023/06/19 02:32:24;;;;;;;9.43;7.60;;;21.40;99.90;;;;;;5098137;28;20487;-71
2023/06/19 02:34:50;;;;;;;10.73;6.90;;;21.40;99.90;;;;;;5115509;28;20547;-71
2023/06/19 02:37:16;;;;;;;9.70;7.23;;;21.40;99.90;;;;;;5116182;28;20134;-71
2023/06/19 02:39:41;;;;;;;10.43;7.47;;;21.40;99.90;;;;;;5116203;28;20070;-71
2023/06/19 02:42:07;;;;;;;10.07;7.03;;;21.30;99.90;;;;;;5116078;28;20083;-71
2023/06/19 02:44:33;;;;;;;10.57;7.30;;;21.30;99.90;;;;;;5080910;28;20402;-71
2023/06/19 02:46:59;;;;;;;8.23;7.17;;;21.20;99.90;;;;;;5097777;28;20055;-70
2023/06/19 02:49:24;;;;;;;10.80;7.20;;;21.30;99.90;;;;;;5081071;28;20079;-71
2023/06/19 02:51:50;;;;;;;10.07;7.63;;;21.20;99.90;;;;;;5097436;28;20039;-71
2023/06/19 02:54:16;;;;;;;10.00;7.10;;;21.20;99.90;;;;;;5097705;28;20039;-70
2023/06/19 02:56:41;;;;;;;8.57;7.17;;;21.10;99.90;;;;;;5115585;28;20097;-71
2023/06/19 02:59:07;;;;;;;10.30;7.17;;;21.10;99.90;;;;;;5114826;28;20383;-70
2023/06/19 03:01:33;;;;;;;9.63;7.13;;;21.10;99.90;;;;;;5115372;28;20048;-70
2023/06/19 03:03:59;;;;;;;8.57;6.90;;;21.10;99.90;;;;;;5115043;28;20518;-71
2023/06/19 03:06:26;;;;;;;8.23;6.67;;;21.10;99.90;;;;;;5115581;28;20555;-70
2023/06/19 03:08:52;;;;;;;8.53;7.03;;;21.10;99.90;;;;;;5115173;28;20043;-71
2023/06/19 03:11:18;;;;;;;10.70;7.73;;;21.00;99.90;;;;;;5115149;28;20055;-70
2023/06/19 03:13:53;;;;;;;7.80;6.90;;;21.10;99.90;;;;;;5115022;28;20499;-71
2023/06/19 03:16:19;;;;;;;10.13;7.33;;;21.00;99.90;;;;;;5115768;28;20095;-70
2023/06/19 03:18:46;;;;;;;11.27;7.23;;;21.00;99.90;;;;;;5115060;28;20129;-71
2023/06/19 03:21:15;;;;;;;10.43;7.37;;;20.90;99.90;;;;;;5115263;28;20087;-71
2023/06/19 03:23:41;;;;;;;8.43;7.30;;;20.90;99.90;;;;;;5114999;28;20074;-71
2023/06/19 03:26:07;;;;;;;8.93;7.00;;;20.90;99.90;;;;;;5115370;28;20051;-71
2023/06/19 03:28:33;;;;;;;9.23;7.03;;;20.90;99.90;;;;;;5115148;28;20047;-71
2023/06/19 03:31:00;;;;;;;14.23;6.73;;;20.90;99.90;;;;;;5114835;28;20050;-71
2023/06/19 03:33:26;;;;;;;9.90;6.37;;;20.90;99.90;;;;;;5115216;28;20090;-70
2023/06/19 03:35:51;;;;;;;7.47;6.00;;;20.90;99.90;;;;;;5114629;28;20079;-71
2023/06/19 03:38:17;;;;;;;7.00;5.70;;;20.90;99.90;;;;;;5114920;28;20039;-70
2023/06/19 03:40:43;;;;;;;7.77;5.47;;;20.90;99.90;;;;;;5114665;28;20039;-71
2023/06/19 03:43:09;;;;;;;5.87;4.80;;;20.80;99.90;;;;;;5114813;28;20445;-71
2023/06/19 03:45:34;;;;;;;5.47;4.10;;;20.80;99.90;;;;;;5114758;28;20126;-71
2023/06/19 03:48:00;;;;;;;6.33;3.57;;;20.80;99.90;;;;;;5114432;28;20104;-71
2023/06/19 03:50:26;;;;;;;5.90;3.70;;;20.80;99.90;;;;;;5114632;28;20048;-70
2023/06/19 03:52:51;;;;;;;5.33;3.73;;;20.80;99.90;;;;;;5114348;28;20044;-71
2023/06/19 03:55:17;;;;;;;5.93;3.30;;;20.80;99.90;;;;;;5114391;28;20112;-71
2023/06/19 03:57:43;;;;;;;5.40;3.80;;;20.80;99.90;;;;;;5114238;28;20075;-71
2023/06/19 04:00:11;;;;;;;5.60;3.63;;;20.80;99.90;;;;;;5096090;28;20482;-71
2023/06/19 04:02:37;;;;;;;6.90;3.20;;;20.80;99.90;;;;;;5114535;28;20048;-71
2023/06/19 04:05:03;;;;;;;5.30;3.63;;;20.80;99.90;;;;;;5114088;28;20052;-71
2023/06/19 04:07:29;;;;;;;5.90;3.37;;;20.80;99.90;;;;;;5114388;28;20096;-71
2023/06/19 04:09:55;;;;;;;5.37;3.40;;;20.70;99.90;;;;;;5113986;28;20048;-71
2023/06/19 04:12:21;;;;;;;6.10;3.40;;;20.70;99.90;;;;;;5114319;28;20548;-71
2023/06/19 04:14:46;;;;;;;5.80;3.23;;;20.70;99.90;;;;;;5113617;28;20059;-71
2023/06/19 04:17:13;;;;;;;6.67;3.57;;;20.70;99.90;;;;;;5095796;28;20045;-70
2023/06/19 04:19:38;;;;;;;5.13;2.97;;;20.70;99.90;;;;;;5114184;28;20140;-71
2023/06/19 04:22:05;;;;;;;9.00;3.83;;;20.70;99.90;;;;;;5113913;28;20087;-71
2023/06/19 04:24:30;;;;;;;5.10;3.30;;;20.70;99.90;;;;;;5114043;28;20053;-70
2023/06/19 04:26:56;;;;;;;7.13;3.27;;;20.70;99.90;;;;;;5095464;28;20222;-71
2023/06/19 04:29:22;;;;;;;5.80;3.10;;;20.70;99.90;;;;;;5113967;28;20502;-71
2023/06/19 04:31:48;;;;;;;5.80;3.73;;;20.80;99.90;;;;;;5113660;28;20043;-71
2023/06/19 04:34:20;;;;;;;6.07;3.93;;;20.80;99.90;;;;;;5113688;28;20105;-71
2023/06/19 04:36:49;;;;;;;5.70;3.37;;;20.80;99.90;;;;;;5113487;28;20047;-76
2023/06/19 04:39:15;;;;;;;5.37;3.60;;;20.90;99.90;;;;;;5095745;28;20043;-71
2023/06/19 04:41:44;;;;;;;6.67;3.43;;;20.90;99.90;;;;;;5113364;28;20139;-71
2023/06/19 04:44:13;;;;;;;6.50;3.30;;;20.90;99.90;;;;;;5113325;28;20044;-71
2023/06/19 04:46:39;;;;;;;5.00;3.27;;;20.90;99.90;;;;;;5113581;28;20108;-71
2023/06/19 04:49:05;;;;;;;5.97;3.43;;;21.00;99.90;;;;;;5113178;28;20043;-71
2023/06/19 04:51:32;;;;;;;6.00;4.10;;;21.00;99.90;;;;;;5113491;28;20044;-71
2023/06/19 04:53:59;;;;;;;6.40;4.07;;;21.10;99.90;;;;;;5113149;28;20043;-71
2023/06/19 04:56:25;;;;;;;5.20;3.60;;;21.20;99.90;;;;;;5113454;28;20090;-71
2023/06/19 04:58:51;;;;;;;5.67;4.00;;;21.40;99.90;;;;;;5095053;28;20104;-71
2023/06/19 05:01:17;;;;;;;6.93;4.10;;;21.50;99.90;;;;;;5113349;28;20058;-71
2023/06/19 05:03:46;;;;;;;6.57;3.93;;;21.60;99.90;;;;;;5113341;28;20103;-71
2023/06/19 05:06:12;;;;;;;5.00;3.83;;;21.60;99.90;;;;;;5094812;28;20044;-71
2023/06/19 05:08:37;;;;;;;6.53;4.13;;;21.60;99.90;;;;;;5095042;28;20123;-71
2023/06/19 05:11:03;;;;;;;8.40;4.53;;;21.50;99.90;;;;;;5112755;28;20044;-71
2023/06/19 05:13:29;;;;;;;5.83;4.37;;;21.50;99.90;;;;;;5113039;28;20050;-71
2023/06/19 05:15:56;;;;;;;5.97;4.37;;;21.40;99.90;;;;;;5112626;28;20054;-71
2023/06/19 05:18:22;;;;;;;6.30;4.33;;;21.40;99.90;;;;;;5113039;28;20074;-71
2023/06/19 05:20:47;;;;;;;6.60;4.57;;;21.40;99.90;;;;;;5078092;28;20051;-71
2023/06/19 05:23:13;;;;;;;6.90;4.60;;;21.30;99.90;;;;;;5112672;28;20318;-70
2023/06/19 05:25:39;;;;;;;6.43;4.60;;;21.30;99.90;;;;;;5112986;28;20075;-71
2023/06/19 05:28:05;;;;;;;5.83;4.43;;;21.30;99.90;;;;;;5112641;28;20057;-72
2023/06/19 05:30:30;;;;;;;6.10;5.00;;;21.20;99.90;;;;;;5112865;28;20100;-73
2023/06/19 05:32:56;;;;;;;6.10;5.07;;;21.20;99.90;;;;;;5112700;28;20143;-74
2023/06/19 05:35:22;;;;;;;7.37;5.67;;;21.20;99.90;;;;;;5112843;28;20050;-73
2023/06/19 05:37:48;;;;;;;7.10;5.63;;;21.10;99.90;;;;;;5094949;28;20039;-73
2023/06/19 05:40:14;;;;;;;7.73;5.83;;;21.10;99.90;;;;;;5112657;28;20100;-73
2023/06/19 05:42:42;;;;;;;8.27;6.87;;;21.10;99.90;;;;;;5112843;28;20048;-70
2023/06/19 05:45:08;;;;;;;11.03;8.33;;;21.10;99.90;;;;;;5112542;28;20491;-71
2023/06/19 05:47:34;;;;;;;11.90;9.33;;;21.10;99.90;;;;;;5112929;28;20082;-70
2023/06/19 05:50:00;;;;;;;12.23;9.47;;;21.10;99.90;;;;;;5112548;28;20448;-71
2023/06/19 05:52:25;;;;;;;15.30;11.07;;;21.20;99.90;;;;;;5094887;28;20043;-71
2023/06/19 05:54:53;;;;;;;13.80;12.27;;;21.20;99.90;;;;;;5112785;28;20503;-70
2023/06/19 05:57:22;;;;;;;14.20;12.70;;;21.20;99.90;;;;;;5094753;28;20059;-71
2023/06/19 05:59:48;;;;;;;15.70;14.00;;;21.20;99.90;;;;;;5112891;28;20140;-79
2023/06/19 06:02:15;;;;;;;15.83;13.57;;;21.30;99.90;;;;;;5094565;28;20475;-71
2023/06/19 06:04:40;;;;;;;16.90;13.13;;;21.30;99.90;;;;;;5113173;28;20364;-71
2023/06/19 06:10:47;;;;;;;15.10;13.60;;;21.50;99.90;;;;;;5113536;28;20120;-71
2023/06/19 06:13:13;;;;;;;16.33;14.23;;;21.60;99.90;;;;;;5112679;28;20143;-71
2023/06/19 06:15:47;;;;;;;16.80;14.20;;;21.70;99.90;;;;;;5081277;28;20056;-71
2023/06/19 06:18:13;;;;;;;14.75;12.93;;;21.60;99.90;;;;;;5054676;28;20128;-71
2023/06/19 06:20:39;;;;;;;15.70;14.10;;;21.50;99.90;;;;;;5038486;28;20131;-71
2023/06/19 06:23:05;;;;;;;15.80;14.20;;;21.50;99.90;;;;;;5071140;28;20080;-71
2023/06/19 06:25:30;;;;;;;18.03;14.40;;;21.50;99.90;;;;;;5071556;28;20052;-71
2023/06/19 06:27:56;;;;;;;18.87;16.77;;;21.40;99.90;;;;;;5054653;28;20048;-71
2023/06/19 06:30:23;;;;;;;21.07;16.77;;;21.40;99.90;;;;;;5071370;28;20040;-71
2023/06/19 06:32:49;;;;;;;21.87;19.30;;;21.30;99.90;;;;;;5054549;28;20447;-71
2023/06/19 06:35:15;;;;;;;23.57;19.40;;;21.30;99.90;;;;;;5058216;28;20083;-71
2023/06/19 06:37:41;;;;;;;25.33;21.13;;;21.20;99.90;;;;;;5076118;28;20059;-71
2023/06/19 06:40:11;;;;;;;25.93;22.37;;;21.10;99.90;;;;;;5074465;28;20052;-71
2023/06/19 06:42:37;;;;;;;26.63;22.90;;;21.00;99.90;;;;;;5057750;28;20048;-71
2023/06/19 06:45:05;;;;;;;29.23;23.00;;;20.90;99.90;;;;;;5075510;28;20041;-71
2023/06/19 06:47:31;;;;;;;30.17;23.77;;;20.90;99.90;;;;;;5058235;28;20055;-71
2023/06/19 06:49:56;;;;;;;31.33;23.93;;;20.80;99.90;;;;;;5075538;28;20500;-71
2023/06/19 06:52:22;;;;;;;30.20;25.13;;;20.80;99.90;;;;;;5074132;28;20063;-71
2023/06/19 06:54:48;;;;;;;31.47;25.67;;;20.70;99.90;;;;;;5075306;28;20476;-71
2023/06/19 06:57:14;;;;;;;30.67;23.87;;;20.70;99.90;;;;;;5075022;28;20045;-70
2023/06/19 06:59:39;;;;;;;30.83;24.90;;;20.70;99.90;;;;;;5074291;28;20123;-71
2023/06/19 07:02:05;;;;;;;29.57;25.07;;;20.60;99.90;;;;;;5073744;28;20469;-71
2023/06/19 07:04:31;;;;;;;30.23;23.57;;;20.60;99.90;;;;;;5074519;28;20052;-71
2023/06/19 07:06:58;;;;;;;26.23;20.93;;;20.60;99.90;;;;;;5041074;28;20056;-71
2023/06/19 07:09:24;;;;;;;25.03;19.83;;;20.60;99.90;;;;;;5075109;28;20437;-70
2023/06/19 07:11:50;;;;;;;26.00;19.60;;;20.70;99.90;;;;;;5073721;28;20063;-71
2023/06/19 07:14:18;;;;;;;27.37;20.60;;;20.70;99.90;;;;;;5040447;28;20468;-71
2023/06/19 07:16:47;;;;;;;27.17;21.27;;;20.60;99.90;;;;;;5112653;28;20087;-70
2023/06/19 07:19:13;;;;;;;27.33;21.53;;;20.60;99.90;;;;;;5097550;28;20078;-71
2023/06/19 07:21:40;;;;;;;30.23;22.53;;;20.60;99.90;;;;;;5097343;28;20538;-71
2023/06/19 07:24:06;;;;;;;29.00;22.50;;;20.60;99.90;;;;;;5097350;28;20506;-71
2023/06/19 07:26:31;;;;;;;27.17;20.80;;;20.60;99.90;;;;;;5097266;28;20047;-71
2023/06/19 07:28:57;;;;;;;27.63;21.37;;;20.60;99.90;;;;;;5080364;28;20051;-71
2023/06/19 07:31:23;;;;;;;24.50;19.13;;;20.60;99.90;;;;;;5080052;28;20055;-71
2023/06/19 07:33:49;;;;;;;24.27;19.10;;;20.60;99.90;;;;;;5097141;28;20087;-70
2023/06/19 07:36:15;;;;;;;22.67;18.23;;;20.60;99.90;;;;;;5097000;28;20112;-71
2023/06/19 07:38:45;;;;;;;21.13;16.50;;;20.70;99.90;;;;;;5115493;28;20044;-71
2023/06/19 07:41:11;;;;;;;22.03;15.03;;;20.70;99.90;;;;;;5114773;28;20043;-71
2023/06/19 07:43:38;;;;;;;20.57;14.13;;;20.80;99.90;;;;;;5096609;28;20127;-71
2023/06/19 07:46:04;;;;;;;15.27;13.07;;;20.80;99.90;;;;;;5079672;28;20059;-71
2023/06/19 07:48:30;;;;;;;15.30;13.23;;;20.90;99.90;;;;;;5079835;28;20044;-71
2023/06/19 07:50:56;;;;;;;17.30;13.43;;;20.90;99.90;;;;;;5097081;28;20039;-71
2023/06/19 07:53:22;;;;;;;16.07;13.47;;;20.90;99.90;;;;;;5115002;28;20113;-71
2023/06/19 07:55:47;;;;;;;19.70;13.40;;;20.90;99.90;;;;;;5096561;28;20042;-71
2023/06/19 07:58:13;;;;;;;17.10;13.93;;;20.80;99.90;;;;;;5096483;28;20047;-71
2023/06/19 08:00:39;;;;;;;16.67;14.77;;;20.90;99.90;;;;;;5079461;28;20047;-71
2023/06/19 08:03:05;;;;;;;16.73;14.93;;;20.80;99.90;;;;;;5079684;28;20097;-71
2023/06/19 08:05:31;;;;;;;17.70;14.67;;;20.80;99.90;;;;;;5096346;28;20047;-71
2023/06/19 08:07:58;;;;;;;17.23;14.97;;;20.80;99.90;;;;;;5114748;28;20499;-71
2023/06/19 08:10:24;;;;;;;17.07;14.20;;;20.80;99.90;;;;;;5114527;28;20080;-71
2023/06/19 08:12:50;;;;;;;15.70;14.10;;;20.70;99.90;;;;;;5079679;28;20053;-70
2023/06/19 08:15:16;;;;;;;14.83;13.33;;;20.80;99.90;;;;;;5078984;28;20079;-70
2023/06/19 08:17:42;;;;;;;16.03;13.27;;;20.80;99.90;;;;;;5096378;28;20043;-71
2023/06/19 08:20:09;;;;;;;14.50;12.23;;;20.70;99.90;;;;;;5114538;28;20054;-71
2023/06/19 08:22:35;;;;;;;15.63;12.97;;;20.70;99.90;;;;;;5096301;28;20054;-71
2023/06/19 08:25:02;;;;;;;13.33;11.80;;;20.80;99.90;;;;;;5046246;28;20035;-70
2023/06/19 08:27:28;;;;;;;15.03;12.30;;;20.90;99.90;;;;;;5113984;28;20134;-71
2023/06/19 08:29:54;;;;;;;15.77;11.53;;;20.90;99.90;;;;;;5078906;28;20201;-71
2023/06/19 08:32:20;;;;;;;13.53;10.70;;;20.90;99.90;;;;;;5096023;28;20055;-71
2023/06/19 08:34:45;;;;;;;11.43;8.90;;;20.90;99.90;;;;;;5113933;28;20043;-71
2023/06/19 08:37:11;;;;;;;11.43;9.53;;;20.90;99.90;;;;;;5079141;28;20131;-78
2023/06/19 08:39:38;;;;;;;12.50;9.37;;;20.90;99.90;;;;;;5079186;28;20138;-71
2023/06/19 08:42:08;;;;;;;10.80;9.27;;;20.90;99.90;;;;;;5114087;28;20062;-70
2023/06/19 08:44:35;;;;;;;12.70;9.37;;;20.80;99.90;;;;;;5078903;28;20544;-71
2023/06/19 08:47:04;;;;;;;12.63;9.30;;;20.80;99.90;;;;;;5114019;28;20088;-70
2023/06/19 08:49:33;;;;;;;13.47;9.83;;;20.70;99.90;;;;;;5113514;28;20079;-71
2023/06/19 08:51:58;;;;;;;13.70;9.93;;;20.70;99.90;;;;;;5078899;28;20044;-71
2023/06/19 08:54:25;;;;;;;11.70;9.33;;;20.70;99.90;;;;;;5078385;28;20129;-71
2023/06/19 08:56:53;;;;;;;10.67;8.37;;;20.70;99.90;;;;;;5078142;28;20101;-71
2023/06/19 08:59:19;;;;;;;11.47;9.37;;;20.80;99.90;;;;;;5078601;28;20044;-71
2023/06/19 09:01:53;;;;;;;13.03;10.10;;;20.80;99.90;;;;;;5095797;28;20078;-71
2023/06/19 09:04:26;;;;;;;12.73;9.77;;;20.80;99.90;;;;;;5095420;28;20138;-71
2023/06/19 09:06:57;;;;;;;14.53;9.87;;;20.80;99.90;;;;;;5095625;28;20112;-71
2023/06/19 09:09:24;;;;;;;14.37;10.00;;;20.80;99.90;;;;;;5078673;28;20086;-71
2023/06/19 09:12:08;;;;;;;13.07;9.97;;;20.80;99.90;;;;;;5078808;28;20059;-71
2023/06/19 09:14:41;;;;;;;15.73;10.40;;;20.80;99.90;;;;;;5094672;28;20075;-70
2023/06/19 09:17:12;;;;;;;15.52;10.65;;;20.70;99.90;;;;;;5079088;28;20104;-70
2023/06/19 09:19:39;;;;;;;13.23;10.40;;;20.70;99.90;;;;;;5078452;28;20432;-71
2023/06/19 09:22:07;;;;;;;13.30;11.67;;;20.70;99.90;;;;;;5095016;28;20055;-70
2023/06/19 09:24:40;;;;;;;13.73;11.13;;;20.70;99.90;;;;;;5095438;28;20044;-71
2023/06/19 09:27:12;;;;;;;16.37;11.00;;;20.60;99.90;;;;;;5113588;28;20112;-71
2023/06/19 09:29:38;;;;;;;14.70;11.17;;;20.60;99.90;;;;;;5095261;28;20109;-71
2023/06/19 09:32:21;;;;;;;18.40;11.97;;;20.70;99.90;;;;;;5078674;28;20047;-71
2023/06/19 09:34:49;;;;;;;16.77;11.63;;;20.70;99.90;;;;;;5095131;28;20067;-71
2023/06/19 09:37:16;;;;;;;16.93;11.57;;;20.70;99.90;;;;;;5078161;28;20142;-71
2023/06/19 09:39:42;;;;;;;13.77;11.77;;;20.70;99.90;;;;;;5113224;28;20123;-71
2023/06/19 09:42:09;;;;;;;12.90;10.80;;;20.80;99.90;;;;;;5095056;28;20052;-71
2023/06/19 09:44:42;;;;;;;15.00;11.60;;;20.80;99.90;;;;;;5112910;28;20127;-71
2023/06/19 09:47:22;;;;;;;15.50;11.20;;;20.90;99.90;;;;;;5113286;28;20232;-71
2023/06/19 09:49:53;;;;;;;14.40;10.77;;;21.00;99.90;;;;;;5078507;28;20134;-71
2023/06/19 09:52:22;;;;;;;15.07;11.07;;;21.10;99.90;;;;;;5094946;28;20052;-90
2023/06/19 09:54:51;;;;;;;17.33;11.03;;;21.20;99.90;;;;;;5078166;28;20047;-71
2023/06/19 09:57:19;;;;;;;14.20;12.37;;;21.30;99.90;;;;;;5112869;28;20410;-71
2023/06/19 09:59:49;;;;;;;14.87;11.77;;;21.30;99.90;;;;;;5095009;28;20072;-71
2023/06/19 10:02:16;;;;;;;16.23;11.50;;;21.30;99.90;;;;;;5078497;28;20039;-70
2023/06/19 10:04:50;;;;;;;13.23;11.37;;;21.20;99.90;;;;;;5094703;28;20375;-71
2023/06/19 10:07:20;;;;;;;15.80;12.67;;;21.10;99.90;;;;;;5078924;28;20403;-71
2023/06/19 10:09:57;;;;;;;17.03;12.43;;;21.10;99.90;;;;;;5117195;28;20039;-71
2023/06/19 10:12:22;;;;;;;13.93;12.20;;;21.00;99.90;;;;;;5116774;28;20104;-71
2023/06/19 10:14:49;;;;;;;14.77;11.90;;;21.10;99.90;;;;;;5081318;28;20391;-71
2023/06/19 10:17:18;;;;;;;15.63;11.83;;;21.00;99.90;;;;;;5081729;28;20446;-71
2023/06/19 10:19:51;;;;;;;17.00;13.13;;;21.10;99.90;;;;;;5116621;28;20441;-71
2023/06/19 10:22:21;;;;;;;18.97;12.50;;;21.20;99.90;;;;;;5098646;28;20047;-70
2023/06/19 10:24:50;;;;;;;15.90;12.23;;;21.30;99.90;;;;;;5098487;28;20074;-71
2023/06/19 10:27:24;;;;;;;17.77;13.47;;;21.50;99.90;;;;;;5097975;28;20479;-71
2023/06/19 10:29:54;;;;;;;19.33;14.93;;;21.80;99.90;;;;;;5116574;28;20071;-71
2023/06/19 10:32:20;;;;;;;17.17;13.93;;;22.00;99.90;;;;;;5098621;28;20056;-71
2023/06/19 10:34:48;;;;;;;20.70;14.30;;;22.30;99.90;;;;;;5081177;28;20039;-71
2023/06/19 10:37:15;;;;;;;15.23;12.97;;;22.50;99.90;;;;;;5098295;28;20039;-71
2023/06/19 10:39:41;;;;;;;17.03;13.10;;;22.60;99.90;;;;;;5098176;28;20514;-71
2023/06/19 10:42:08;;;;;;;15.20;13.60;;;22.50;99.90;;;;;;5064766;28;20048;-71
2023/06/19 10:44:34;;;;;;;15.90;12.77;;;22.40;99.90;;;;;;5081024;28;20143;-71
2023/06/19 10:47:01;;;;;;;16.30;13.10;;;22.30;99.90;;;;;;5116060;28;20134;-71
2023/06/19 10:49:28;;;;;;;15.87;12.57;;;22.30;99.90;;;;;;5098290;28;20069;-71
2023/06/19 10:51:58;;;;;;;14.43;12.47;;;22.30;99.90;;;;;;5116222;28;20051;-71
2023/06/19 10:54:25;;;;;;;14.90;12.93;;;22.30;99.90;;;;;;5081310;28;20043;-71
2023/06/19 10:56:51;;;;;;;13.53;12.07;;;22.40;99.90;;;;;;5116009;28;20126;-71
2023/06/19 10:59:18;;;;;;;15.50;12.63;;;22.50;99.90;;;;;;5097685;28;20510;-71
2023/06/19 11:01:50;;;;;;;14.70;11.90;;;22.70;99.90;;;;;;5080567;28;20564;-71
2023/06/19 11:04:16;;;;;;;14.33;11.10;;;22.70;99.90;;;;;;5115825;28;20046;-71
2023/06/19 11:06:45;;;;;;;14.20;12.03;;;22.80;99.90;;;;;;5097412;28;20063;-71
2023/06/19 11:09:11;;;;;;;14.23;12.70;;;22.80;99.90;;;;;;5115574;28;20498;-71
2023/06/19 11:11:43;;;;;;;15.70;13.30;;;22.80;99.90;;;;;;5115499;28;20048;-71
2023/06/19 11:14:12;;;;;;;17.57;14.63;;;22.70;99.90;;;;;;5097375;28;20040;-71
2023/06/19 11:16:40;;;;;;;15.50;13.90;;;22.70;99.90;;;;;;5096904;28;20055;-71
2023/06/19 11:19:08;;;;;;;20.13;14.73;;;22.80;99.90;;;;;;5096938;28;20051;-71
2023/06/19 11:21:39;;;;;;;18.27;13.73;;;22.90;99.90;;;;;;5080672;28;20044;-71
2023/06/19 11:24:14;;;;;;;17.73;14.87;;;23.00;99.90;;;;;;5080959;28;20051;-71
2023/06/19 11:26:54;;;;;;;16.27;14.57;;;23.10;99.90;;;;;;5115310;28;20040;-71
2023/06/19 11:29:29;;;;;;;22.90;15.50;;;22.90;99.90;;;;;;5115313;28;20082;-71
2023/06/19 11:32:06;;;;;;;;;;;22.80;99.90;;;;;;5115805;28;20055;-71
2023/06/19 11:34:36;;;;;;;15.33;13.23;;;22.70;99.90;;;;;;5097074;28;20260;-71
2023/06/19 11:37:18;;;;;;;17.60;13.20;;;22.80;99.90;;;;;;5080212;28;20134;-71
2023/06/19 11:39:48;;;;;;;19.07;15.13;;;22.80;99.90;;;;;;5114873;28;20048;-71
2023/06/19 11:42:17;;;;;;;16.27;13.87;;;22.80;99.90;;;;;;5115169;28;20046;-71
2023/06/19 11:45:12;;;;;;;16.17;13.50;;;22.90;99.90;;;;;;5096527;28;20105;-71
2023/06/19 11:47:37;;;;;;;15.48;13.60;;;23.00;99.90;;;;;;5058455;28;20066;-71
2023/06/19 11:50:07;;;;;;;15.97;12.87;;;23.00;99.90;;;;;;5096974;28;20044;-71
2023/06/19 11:52:33;;;;;;;18.00;12.50;;;22.90;99.90;;;;;;5079922;28;20051;-72
2023/06/19 11:54:59;;;;;;;16.13;12.40;;;23.00;99.90;;;;;;5062993;28;20505;-71
2023/06/19 11:57:26;;;;;;;12.10;10.10;;;23.00;99.90;;;;;;5096648;28;20071;-71
2023/06/19 11:59:52;;;;;;;16.20;11.47;;;23.10;99.90;;;;;;5096951;28;20129;-71
2023/06/19 12:02:18;;;;;;;15.13;10.93;;;23.10;99.90;;;;;;5115097;28;20083;-71
2023/06/19 12:04:43;;;;;;;14.97;11.47;;;23.10;99.90;;;;;;5096576;28;20078;-71
2023/06/19 12:07:09;;;;;;;16.07;11.07;;;23.10;99.90;;;;;;5079748;28;20105;-71
2023/06/19 12:09:35;;;;;;;16.80;12.07;;;23.10;99.90;;;;;;5079768;28;20040;-71
2023/06/19 12:12:01;;;;;;;12.63;9.97;;;23.10;99.90;;;;;;5096364;28;20051;-71
2023/06/19 12:14:27;;;;;;;12.17;9.70;;;23.20;99.90;;;;;;5096455;28;20100;-71
2023/06/19 12:16:52;;;;;;;10.40;8.87;;;23.20;99.90;;;;;;5078543;28;20044;-71
2023/06/19 12:19:18;;;;;;;12.50;9.50;;;23.30;99.90;;;;;;5072773;28;20049;-71
2023/06/19 12:21:44;;;;;;;11.80;9.00;;;23.30;99.90;;;;;;5039460;28;20059;-71
2023/06/19 12:24:10;;;;;;;10.60;7.40;;;23.40;99.90;;;;;;5072605;28;20040;-71
2023/06/19 12:26:39;;;;;;;10.73;7.80;;;23.40;99.90;;;;;;5039322;28;20473;-75
2023/06/19 12:29:08;;;;;;;10.43;8.80;;;23.40;99.90;;;;;;5056740;28;20103;-71
2023/06/19 12:31:36;;;;;;;10.40;8.93;;;23.40;99.90;;;;;;5072507;28;20047;-71
2023/06/19 12:34:02;;;;;;;10.80;7.93;;;23.40;99.90;;;;;;5073614;28;20123;-71
2023/06/19 12:36:28;;;;;;;11.63;8.33;;;23.40;99.90;;;;;;5072180;28;20063;-71
2023/06/19 12:38:54;;;;;;;14.27;8.50;;;23.40;99.90;;;;;;5073178;28;20056;-71
2023/06/19 12:41:21;;;;;;;9.47;7.97;;;23.40;99.90;;;;;;5072109;28;20049;-71